createdAt,value
2022-11-25T00:07:07.626Z,6.60
2022-11-25T00:17:11.643Z,6.65
2022-11-25T00:27:14.339Z,6.69
2022-11-25T00:37:18.309Z,6.78
2022-11-25T00:47:22.122Z,6.89
2022-11-25T00:57:26.099Z,7.05
2022-11-25T01:07:28.830Z,7.12
2022-11-25T01:17:33.538Z,7.28
2022-11-25T01:27:36.161Z,7.22
2022-11-25T01:37:40.169Z,7.34
2022-11-25T01:47:42.815Z,7.35
2022-11-25T01:57:49.474Z,7.42
2022-11-25T02:07:54.268Z,7.46
2022-11-25T02:17:58.391Z,7.45
2022-11-25T02:28:06.684Z,7.58
2022-11-25T02:38:11.273Z,7.81
2022-11-25T02:48:15.703Z,7.89
2022-11-25T02:58:18.389Z,7.89
2022-11-25T03:08:22.466Z,7.96
2022-11-25T03:18:25.167Z,7.89
2022-11-25T03:28:29.190Z,7.98
2022-11-25T03:38:31.843Z,7.74
2022-11-25T03:48:36.429Z,7.73
2022-11-25T03:58:39.114Z,7.78
2022-11-25T04:08:43.131Z,7.77
2022-11-25T04:18:45.753Z,7.82
2022-11-25T04:28:51.092Z,7.82
2022-11-25T04:38:55.689Z,7.93
2022-11-25T04:48:59.671Z,8.02
2022-11-25T04:59:19.738Z,7.97
2022-11-25T05:09:24.186Z,8.03
2022-11-25T05:19:26.816Z,8.11
2022-11-25T05:29:30.781Z,8.06
2022-11-25T05:39:33.429Z,8.06
2022-11-25T05:49:37.414Z,8.31
2022-11-25T05:59:40.083Z,8.20
2022-11-25T06:09:44.065Z,8.30
2022-11-25T06:19:47.927Z,8.30
2022-11-25T06:29:51.913Z,8.31
2022-11-25T06:39:54.556Z,8.37
2022-11-25T06:49:58.626Z,8.53
2022-11-25T07:00:01.249Z,8.66
2022-11-25T07:10:06.281Z,8.72
2022-11-25T07:20:10.013Z,8.73
2022-11-25T07:31:21.658Z,8.74
2022-11-25T07:40:37.402Z,8.82
2022-11-25T07:50:41.386Z,8.89
2022-11-25T08:00:44.224Z,8.88
2022-11-25T08:10:48.216Z,9.05
2022-11-25T08:20:50.884Z,9.10
2022-11-25T08:31:02.934Z,9.19
2022-11-25T08:41:10.940Z,9.32
2022-11-25T08:51:16.602Z,9.46
2022-11-25T09:01:20.743Z,9.81
2022-11-25T09:11:24.965Z,9.70
2022-11-25T09:21:28.829Z,9.67
2022-11-25T09:31:32.882Z,9.70
2022-11-25T09:42:09.623Z,9.74
2022-11-25T09:52:24.503Z,10.31
2022-11-25T10:02:31.256Z,10.82
2022-11-25T10:12:39.938Z,10.89
2022-11-25T10:22:45.281Z,11.40
2022-11-25T10:32:56.591Z,11.33
2022-11-25T10:43:10.949Z,11.67
2022-11-25T10:53:18.832Z,11.91
2022-11-25T11:03:26.284Z,12.05
2022-11-25T11:13:33.469Z,12.29
2022-11-25T11:23:50.119Z,12.16
2022-11-25T11:34:01.706Z,12.55
2022-11-25T11:44:19.849Z,12.77
2022-11-25T11:54:34.724Z,13.06
2022-11-25T12:04:41.775Z,14.26
2022-11-25T12:14:50.438Z,19.10
2022-11-25T12:25:01.426Z,21.37
2022-11-25T12:35:16.355Z,20.09
2022-11-25T12:45:23.527Z,20.32
2022-11-25T12:55:28.841Z,18.26
2022-11-25T13:06:10.496Z,14.80
2022-11-25T13:16:15.647Z,13.41
2022-11-25T13:26:46.675Z,13.22
2022-11-25T13:36:52.652Z,13.68
2022-11-25T13:46:58.157Z,15.22
2022-11-25T13:57:20.943Z,15.86
2022-11-25T14:07:33.974Z,13.38
2022-11-25T14:18:05.318Z,12.69
2022-11-25T14:28:15.278Z,12.29
2022-11-25T14:38:24.177Z,11.92
2022-11-25T14:48:27.271Z,11.88
2022-11-25T14:58:31.742Z,11.67
2022-11-25T15:08:40.956Z,11.39
2022-11-25T15:18:51.431Z,11.11
2022-11-25T15:28:57.815Z,10.96
2022-11-25T15:39:18.060Z,10.97
2022-11-25T15:49:21.123Z,11.03
2022-11-25T15:59:41.461Z,10.97
2022-11-25T16:09:51.256Z,10.87
2022-11-25T16:19:55.275Z,10.78
2022-11-25T16:30:08.144Z,10.72
2022-11-25T16:40:16.241Z,10.53
2022-11-25T16:50:19.949Z,10.31
2022-11-25T17:00:24.407Z,10.09
2022-11-25T17:10:27.930Z,9.94
2022-11-25T17:20:31.916Z,9.76
2022-11-25T17:30:34.595Z,9.62
2022-11-25T17:40:39.065Z,9.44
2022-11-25T17:50:43.374Z,9.36
2022-11-25T18:00:48.355Z,9.32
2022-11-25T18:10:51.225Z,9.24
2022-11-25T18:20:55.856Z,9.06
2022-11-25T18:31:03.062Z,9.00
2022-11-25T18:41:07.293Z,8.90
2022-11-25T18:51:13.051Z,8.90
2022-11-25T19:01:17.418Z,8.82
2022-11-25T19:11:24.265Z,8.72
2022-11-25T19:21:30.489Z,8.59
2022-11-25T19:31:34.456Z,8.50
2022-11-25T19:41:38.483Z,8.43
2022-11-25T19:51:41.202Z,8.34
2022-11-25T20:01:46.454Z,8.30
2022-11-25T20:11:54.080Z,8.24
2022-11-25T20:21:58.130Z,8.16
2022-11-25T20:32:23.189Z,8.08
2022-11-25T20:42:28.198Z,7.98
2022-11-25T20:52:32.234Z,7.84
2022-11-25T21:02:36.348Z,7.72
2022-11-25T21:12:39.150Z,7.57
2022-11-25T21:22:47.539Z,7.42
2022-11-25T21:32:53.142Z,7.35
2022-11-25T21:42:57.160Z,7.33
2022-11-25T21:53:00.918Z,7.31
2022-11-25T22:03:06.862Z,7.30
2022-11-25T22:13:13.232Z,7.29
2022-11-25T22:23:19.443Z,7.31
2022-11-25T22:33:29.975Z,7.32
2022-11-25T22:43:38.092Z,7.28
2022-11-25T22:53:40.747Z,7.22
2022-11-25T23:03:45.756Z,7.22
2022-11-25T23:13:48.828Z,7.16
2022-11-25T23:23:52.862Z,7.12
2022-11-25T23:33:55.632Z,7.07
2022-11-25T23:44:04.032Z,6.96
2022-11-25T23:54:06.810Z,6.86
